x

South Santa Rosa Is. Ca (46069) Wave Buoy

8:50 - Tue 24th May 2016 All times are PDT. -7 hours from GMT.

  • Sig Wave height 2.6ft
  • Swell Direction
  • Peak Period 8s
  • Average Period 5s
  • Wind
    13mph, 16mph gusts
  • Sea Temp 58°f
  • Air Temp 59°f
  • Sea Pressure 1017.2mb
  • South Santa Rosa Is. Ca
  • South Santa Rosa Is. Ca

More Historic Weather Station data

Upgrade to MSW Pro to gain access to the past 30 days of data for over 8000 Wavebouys and Weather Stations around the globe.

Join Pro

Comparision Forecast

View Surf forecast
   
mar. 05/24 8:50 2.5ft 8s 5s 13 16 mph 1017.2mb 58f 59f
7:50 2.5ft 15s  -  11
mph
1017mb 58f 58f
6:50 2.5ft 15s 5s 11 13 mph 1016.9mb 59f 59f
5:50 2.5ft 5s 6s 13
mph
1016.9mb 60f 59f
4:50 2.5ft 6s 5s 11 13 mph 1017mb 60f 59f
3:50 3ft 5s  -  7 9 mph 1017mb 60f 58f
2:50 2.5ft 15s 5s 7 9 mph 1017.3mb 60f 58f
1:50 3ft 15s 6s 7
mph
1017.4mb 60f 58f
12:50 2.5ft 5s 6s 7 9 mph 1017.4mb 60f 58f
11:50 3ft 15s 6s 2 4 mph 1017.3mb 60f 57f
10:50 3ft 15s 6s 4
mph
1016.9mb 59f 57f
9:50 2.5ft 15s 5s 7 9 mph 1016.5mb 59f 56f
8:50 3ft 16s 5s 7 9 mph 1016.1mb 59f 56f
7:50 3ft 15s 5s 9 11 mph 1015.4mb 59f 56f
6:50 3.5ft 5s 5s 11 13 mph 1014.8mb 58f 56f
5:50 3.5ft 16s 5s 11 13 mph 1014.4mb 58f 56f
4:50 3.5ft 5s 5s 11 16 mph 1014.1mb 58f 56f
3:50 3.5ft 13s 5s 13 18 mph 1013.9mb 58f 57f
2:50 3.5ft 6s 5s 16 20 mph 1013.6mb 58f 56f
1:50 4ft 6s 5s 13 18 mph 1013.8mb 58f 56f
12:50 4.5ft 6s 5s 16 18 mph 1014.1mb 58f 57f
lun. 05/23 11:50 4.5ft 6s 5s 16 20 mph 1013.8mb 58f 57f
10:50 4.5ft 6s 5s 16 20 mph 1014mb 58f 57f
9:50 4.5ft 6s 5s 18 22 mph 1013.7mb 58f 57f
8:50 4.5ft 6s 5s 18 22 mph 1013.2mb 58f 57f
7:50 4.5ft 6s 5s 18 22 mph 1013mb 58f 57f
6:50 4.5ft 6s 5s 20 22 mph 1013mb 58f 57f
5:50 4.5ft 6s 5s 20 22 mph 1013.3mb 58f 58f
3:50 5ft 6s 5s 20 22 mph 1014mb 58f 57f
2:50 5ft 6s 5s 20 22 mph 1014.5mb 57f 57f
1:50 5ft 6s 5s 18 22 mph 1014.7mb 58f 57f
12:50 5ft 6s 5s 20 25 mph 1014.8mb 58f 56f
11:50 5.5ft 6s 5s 22 27 mph 1014.8mb 58f 56f
10:50 6ft 6s 5s 22 27 mph 1014.8mb 58f 56f
9:50 6ft 6s 5s 25 29 mph 1014.6mb 58f 56f
8:50 6ft 6s 5s 25 29 mph 1014.4mb 58f 56f
7:50 6ft 6s 5s 27 31 mph 1014mb 58f 56f
6:50 6ft 6s 5s 25 31 mph 1013.8mb 57f 56f
5:50 6ft 6s 5s 27 34 mph 1013.5mb 58f 56f
4:50 6ft 6s 6s 27 34 mph 1013.4mb 58f 56f
3:50 6.5ft 6s  -  27 31 mph 1013.7mb 58f 56f
2:50 6ft 6s 5s 25 31 mph 1013.9mb 59f 57f
1:50 6ft 6s 5s 27 34 mph 1014.2mb 59f 57f
12:50 6ft 6s 5s 25 29 mph 1015.1mb 59f 57f
dim. 05/22 11:50 6ft 6s 5s 25 31 mph 1015.6mb 59f 57f
10:50 6ft 6s 5s 25 31 mph 1015.7mb 59f 57f
9:50 6ft 6s 5s 25 29 mph 1015.6mb 59f 57f
8:50 6ft 11s 6s 27 31 mph 1015.2mb 59f 57f
7:50 6ft 11s 6s 25 29 mph 1015.1mb 59f 57f
6:50 6ft 11s 6s 22 27 mph 1015.3mb 59f 58f
5:50 5ft 10s 5s 25 29 mph 1015.9mb 59f 58f
4:50 5ft 5s 5s 22 27 mph 1016.4mb 59f 58f
3:50 5ft 11s 5s 22 27 mph 1017.1mb 59f 57f
2:50 5.5ft 11s 5s 22 27 mph 1017.6mb 59f 57f
1:50 5ft 9s 5s 20 25 mph 1018mb 59f 57f
12:50 5ft 11s 5s 22 27 mph 1018.4mb 59f 57f
11:50 5ft 11s 5s 22 27 mph 1018.9mb 59f 57f
10:50 5.5ft 13s 5s 22 25 mph 1018.8mb 59f 56f
9:50 5ft 10s 5s 22 27 mph 1018.7mb 59f 56f
8:50 6ft 11s 5s 22 27 mph 1018.6mb 59f 56f
7:50 6ft 9s 5s 22 27 mph 1018.4mb 59f 56f
6:50 5.5ft 10s 5s 25 29 mph 1017.9mb 59f 56f
5:50 5ft 11s 6s 25 29 mph 1017.4mb 59f 56f
4:50 5.5ft 10s 6s 22 27 mph 1017.5mb 59f 56f
3:50 5.5ft 10s 6s 22 27 mph 1017.5mb 59f 56f
2:50 5.5ft 10s 6s 22 25 mph 1017.5mb 59f 57f
1:50 6ft 10s 6s 22 25 mph 1017.8mb 59f 56f
12:50 5.5ft 10s 6s 22 27 mph 1018mb 59f 57f
sam. 05/21 11:50 5ft 10s 6s 20 25 mph 1018.2mb 59f 57f
10:50 6ft 10s 6s 20 25 mph 1018.3mb 59f 57f
9:50 5ft 10s 6s 20 22 mph 1018.3mb 59f 57f
8:50 6ft 10s 6s 18 20 mph 1018mb 59f 57f
7:50 5.5ft 10s 6s 18 22 mph 1017.7mb 59f 58f
6:50 5.5ft 9s 6s 20 22 mph 1017.6mb 58f 58f
5:50 6ft 10s 7s 20 22 mph 1017.4mb 59f 58f
4:50 5.5ft 10s 6s 22 25 mph 1017mb 59f 58f
3:50 6ft 11s 7s 20 25 mph 1017.2mb 59f 57f
2:50 7ft 11s 7s 18 20 mph 1017.4mb 58f 57f
1:50 6ft 10s 6s 20 25 mph 1017.2mb 58f 57f
12:50 6ft 9s 7s 18 20 mph 1017.4mb 58f 56f
11:50 6ft 10s 6s 18 20 mph 1017.3mb 58f 56f
10:50 6ft 10s 7s 18 22 mph 1016.9mb 58f 56f
9:50 6ft 10s 6s 18 22 mph 1016.5mb 58f 56f
8:50 6.5ft 10s 6s 20 22 mph 1016.2mb 58f 56f
7:50 6.5ft 11s 6s 20 25 mph 1015.6mb 58f 56f
6:50 6.5ft 10s 6s 20 22 mph 1015.2mb 58f 56f
5:50 7ft 10s 7s 20 25 mph 1014.7mb 58f 56f